sensor_id;sensor_type;location;lat;lon;timestamp;temperature;humidity
5492;DHT22;2768;53.540;10.224;2023-01-28T00:05:47;3.80;99.90
5492;DHT22;2768;53.540;10.224;2023-01-28T00:11:40;3.90;99.90
5492;DHT22;2768;53.540;10.224;2023-01-28T00:17:35;3.90;99.90
5492;DHT22;2768;53.540;10.224;2023-01-28T00:23:31;4.00;99.90
5492;DHT22;2768;53.540;10.224;2023-01-28T00:29:24;4.00;99.90
5492;DHT22;2768;53.540;10.224;2023-01-28T00:35:19;3.80;99.90
5492;DHT22;2768;53.540;10.224;2023-01-28T00:41:13;3.80;99.90
5492;DHT22;2768;53.540;10.224;2023-01-28T00:47:07;3.70;99.90
5492;DHT22;2768;53.540;10.224;2023-01-28T00:53:02;3.60;99.90
5492;DHT22;2768;53.540;10.224;2023-01-28T00:58:55;3.70;99.90
5492;DHT22;2768;53.540;10.224;2023-01-28T01:04:48;3.80;99.90
5492;DHT22;2768;53.540;10.224;2023-01-28T01:10:51;3.90;99.90
5492;DHT22;2768;53.540;10.224;2023-01-28T01:16:45;3.90;99.90
5492;DHT22;2768;53.540;10.224;2023-01-28T01:22:38;3.90;99.90
5492;DHT22;2768;53.540;10.224;2023-01-28T01:28:33;3.90;99.90
5492;DHT22;2768;53.540;10.224;2023-01-28T01:34:27;3.90;99.90
5492;DHT22;2768;53.540;10.224;2023-01-28T01:40:20;3.80;99.90
5492;DHT22;2768;53.540;10.224;2023-01-28T01:46:18;3.70;99.90
5492;DHT22;2768;53.540;10.224;2023-01-28T01:52:16;3.80;99.90
5492;DHT22;2768;53.540;10.224;2023-01-28T01:58:12;3.80;99.90
5492;DHT22;2768;53.540;10.224;2023-01-28T02:04:11;3.80;99.90
5492;DHT22;2768;53.540;10.224;2023-01-28T02:10:07;3.80;99.90
5492;DHT22;2768;53.540;10.224;2023-01-28T02:16:02;3.80;99.90
5492;DHT22;2768;53.540;10.224;2023-01-28T02:22:14;3.60;99.90
5492;DHT22;2768;53.540;10.224;2023-01-28T02:28:22;3.80;99.90
5492;DHT22;2768;53.540;10.224;2023-01-28T02:34:20;3.60;99.90
5492;DHT22;2768;53.540;10.224;2023-01-28T02:40:21;3.70;99.90
5492;DHT22;2768;53.540;10.224;2023-01-28T02:46:21;3.70;99.90
5492;DHT22;2768;53.540;10.224;2023-01-28T02:52:44;3.60;99.90
5492;DHT22;2768;53.540;10.224;2023-01-28T02:59:02;3.60;99.90
5492;DHT22;2768;53.540;10.224;2023-01-28T03:05:25;3.60;99.90
5492;DHT22;2768;53.540;10.224;2023-01-28T03:11:19;3.70;99.90
5492;DHT22;2768;53.540;10.224;2023-01-28T03:17:38;3.50;99.90
5492;DHT22;2768;53.540;10.224;2023-01-28T03:23:56;3.40;99.90
5492;DHT22;2768;53.540;10.224;2023-01-28T03:30:12;3.40;99.90
5492;DHT22;2768;53.540;10.224;2023-01-28T03:36:29;3.30;99.90
5492;DHT22;2768;53.540;10.224;2023-01-28T03:43:06;3.20;99.90
5492;DHT22;2768;53.540;10.224;2023-01-28T03:49:00;3.20;99.90
5492;DHT22;2768;53.540;10.224;2023-01-28T03:54:53;3.20;99.90
5492;DHT22;2768;53.540;10.224;2023-01-28T04:00:48;3.20;99.90
5492;DHT22;2768;53.540;10.224;2023-01-28T04:06:42;3.20;99.90
5492;DHT22;2768;53.540;10.224;2023-01-28T04:12:48;3.30;99.90
5492;DHT22;2768;53.540;10.224;2023-01-28T04:18:46;3.20;99.90
5492;DHT22;2768;53.540;10.224;2023-01-28T04:24:40;3.20;99.90
5492;DHT22;2768;53.540;10.224;2023-01-28T04:30:35;3.20;99.90
5492;DHT22;2768;53.540;10.224;2023-01-28T04:36:36;3.30;99.90
5492;DHT22;2768;53.540;10.224;2023-01-28T04:42:52;3.40;99.90
5492;DHT22;2768;53.540;10.224;2023-01-28T04:49:09;3.00;99.90
5492;DHT22;2768;53.540;10.224;2023-01-28T04:55:36;3.10;99.90
5492;DHT22;2768;53.540;10.224;2023-01-28T05:01:29;3.00;99.90
5492;DHT22;2768;53.540;10.224;2023-01-28T05:07:23;3.20;99.90
5492;DHT22;2768;53.540;10.224;2023-01-28T05:13:18;3.10;99.90
5492;DHT22;2768;53.540;10.224;2023-01-28T05:19:12;2.90;99.90
5492;DHT22;2768;53.540;10.224;2023-01-28T05:25:08;3.00;99.90
5492;DHT22;2768;53.540;10.224;2023-01-28T05:31:04;3.00;99.90
5492;DHT22;2768;53.540;10.224;2023-01-28T05:36:58;3.20;99.90
5492;DHT22;2768;53.540;10.224;2023-01-28T05:43:00;3.00;99.90
5492;DHT22;2768;53.540;10.224;2023-01-28T05:49:09;3.00;99.90
5492;DHT22;2768;53.540;10.224;2023-01-28T05:55:33;3.10;99.90
5492;DHT22;2768;53.540;10.224;2023-01-28T06:01:27;2.90;99.90
5492;DHT22;2768;53.540;10.224;2023-01-28T06:07:22;2.70;99.90
5492;DHT22;2768;53.540;10.224;2023-01-28T06:13:15;2.40;99.90
5492;DHT22;2768;53.540;10.224;2023-01-28T06:19:09;2.70;99.90
5492;DHT22;2768;53.540;10.224;2023-01-28T06:25:04;2.80;99.90
5492;DHT22;2768;53.540;10.224;2023-01-28T06:30:59;2.90;99.90
5492;DHT22;2768;53.540;10.224;2023-01-28T06:36:52;2.70;99.90
5492;DHT22;2768;53.540;10.224;2023-01-28T06:42:47;2.70;99.90
5492;DHT22;2768;53.540;10.224;2023-01-28T06:48:39;2.80;99.90
5492;DHT22;2768;53.540;10.224;2023-01-28T06:54:33;2.60;99.90
5492;DHT22;2768;53.540;10.224;2023-01-28T07:00:28;2.60;99.90
5492;DHT22;2768;53.540;10.224;2023-01-28T07:06:21;2.50;99.90
5492;DHT22;2768;53.540;10.224;2023-01-28T07:12:15;2.50;99.90
5492;DHT22;2768;53.540;10.224;2023-01-28T07:18:09;2.20;99.90
5492;DHT22;2768;53.540;10.224;2023-01-28T07:24:03;2.00;99.90
5492;DHT22;2768;53.540;10.224;2023-01-28T07:29:56;2.00;99.90
5492;DHT22;2768;53.540;10.224;2023-01-28T07:35:51;2.10;99.90
5492;DHT22;2768;53.540;10.224;2023-01-28T07:41:44;2.00;99.90
5492;DHT22;2768;53.540;10.224;2023-01-28T07:47:55;2.10;99.90
5492;DHT22;2768;53.540;10.224;2023-01-28T07:53:50;2.10;99.90
5492;DHT22;2768;53.540;10.224;2023-01-28T07:59:44;2.20;99.90
5492;DHT22;2768;53.540;10.224;2023-01-28T08:05:40;2.00;99.90
5492;DHT22;2768;53.540;10.224;2023-01-28T08:11:38;1.90;99.90
5492;DHT22;2768;53.540;10.224;2023-01-28T08:17:31;2.10;99.90
5492;DHT22;2768;53.540;10.224;2023-01-28T08:23:25;2.20;99.90
5492;DHT22;2768;53.540;10.224;2023-01-28T08:29:21;2.00;99.90
5492;DHT22;2768;53.540;10.224;2023-01-28T08:35:14;2.10;99.90
5492;DHT22;2768;53.540;10.224;2023-01-28T08:41:07;2.00;99.90
5492;DHT22;2768;53.540;10.224;2023-01-28T08:47:02;2.20;99.90
5492;DHT22;2768;53.540;10.224;2023-01-28T08:52:57;2.30;99.90
5492;DHT22;2768;53.540;10.224;2023-01-28T08:58:50;2.40;99.90
5492;DHT22;2768;53.540;10.224;2023-01-28T09:04:45;2.50;99.90
5492;DHT22;2768;53.540;10.224;2023-01-28T09:10:38;2.50;99.90
5492;DHT22;2768;53.540;10.224;2023-01-28T09:16:32;2.60;99.90
5492;DHT22;2768;53.540;10.224;2023-01-28T09:22:27;2.60;99.90
5492;DHT22;2768;53.540;10.224;2023-01-28T09:28:20;2.60;99.90
5492;DHT22;2768;53.540;10.224;2023-01-28T09:34:14;2.40;99.90
5492;DHT22;2768;53.540;10.224;2023-01-28T09:40:13;2.60;99.90
5492;DHT22;2768;53.540;10.224;2023-01-28T09:46:11;2.90;99.90
5492;DHT22;2768;53.540;10.224;2023-01-28T09:52:07;3.30;99.90
5492;DHT22;2768;53.540;10.224;2023-01-28T09:58:10;3.80;99.90
5492;DHT22;2768;53.540;10.224;2023-01-28T10:04:12;4.30;99.90
5492;DHT22;2768;53.540;10.224;2023-01-28T10:10:16;4.70;99.90
5492;DHT22;2768;53.540;10.224;2023-01-28T10:16:29;4.80;99.90
5492;DHT22;2768;53.540;10.224;2023-01-28T10:22:30;4.90;99.90
5492;DHT22;2768;53.540;10.224;2023-01-28T10:28:27;4.80;99.90
5492;DHT22;2768;53.540;10.224;2023-01-28T10:34:22;4.60;99.90
5492;DHT22;2768;53.540;10.224;2023-01-28T10:40:17;4.70;99.90
5492;DHT22;2768;53.540;10.224;2023-01-28T10:46:13;5.50;99.90
5492;DHT22;2768;53.540;10.224;2023-01-28T10:52:13;5.00;99.90
5492;DHT22;2768;53.540;10.224;2023-01-28T10:58:13;4.30;99.90
5492;DHT22;2768;53.540;10.224;2023-01-28T11:04:18;4.30;99.90
5492;DHT22;2768;53.540;10.224;2023-01-28T11:10:28;5.10;99.90
5492;DHT22;2768;53.540;10.224;2023-01-28T11:16:23;5.30;99.90
5492;DHT22;2768;53.540;10.224;2023-01-28T11:22:30;5.80;99.90
5492;DHT22;2768;53.540;10.224;2023-01-28T11:28:26;6.30;99.90
5492;DHT22;2768;53.540;10.224;2023-01-28T11:34:20;6.90;99.90
5492;DHT22;2768;53.540;10.224;2023-01-28T11:40:18;7.70;99.90
5492;DHT22;2768;53.540;10.224;2023-01-28T11:46:31;7.10;99.90
5492;DHT22;2768;53.540;10.224;2023-01-28T11:52:36;7.80;99.90
5492;DHT22;2768;53.540;10.224;2023-01-28T11:58:59;7.40;99.90
5492;DHT22;2768;53.540;10.224;2023-01-28T12:05:11;7.50;99.90
5492;DHT22;2768;53.540;10.224;2023-01-28T12:11:20;6.80;99.90
5492;DHT22;2768;53.540;10.224;2023-01-28T12:17:48;7.90;99.90
5492;DHT22;2768;53.540;10.224;2023-01-28T12:23:57;7.30;99.90
5492;DHT22;2768;53.540;10.224;2023-01-28T12:29:57;7.80;99.90
5492;DHT22;2768;53.540;10.224;2023-01-28T12:36:01;8.40;99.90
5492;DHT22;2768;53.540;10.224;2023-01-28T12:42:04;8.00;99.70
5492;DHT22;2768;53.540;10.224;2023-01-28T12:48:06;8.30;99.90
5492;DHT22;2768;53.540;10.224;2023-01-28T12:54:04;7.40;97.30
5492;DHT22;2768;53.540;10.224;2023-01-28T13:00:18;6.10;97.10
5492;DHT22;2768;53.540;10.224;2023-01-28T13:06:16;6.40;99.90
5492;DHT22;2768;53.540;10.224;2023-01-28T13:12:11;6.60;99.90
5492;DHT22;2768;53.540;10.224;2023-01-28T13:18:06;7.00;99.90
5492;DHT22;2768;53.540;10.224;2023-01-28T13:24:05;6.10;99.90
5492;DHT22;2768;53.540;10.224;2023-01-28T13:30:02;6.10;99.90
5492;DHT22;2768;53.540;10.224;2023-01-28T13:35:58;6.20;99.90
5492;DHT22;2768;53.540;10.224;2023-01-28T13:41:55;6.30;99.90
5492;DHT22;2768;53.540;10.224;2023-01-28T13:48:05;6.80;99.90
5492;DHT22;2768;53.540;10.224;2023-01-28T13:54:11;6.50;99.90
5492;DHT22;2768;53.540;10.224;2023-01-28T14:00:11;6.30;99.90
5492;DHT22;2768;53.540;10.224;2023-01-28T14:06:34;5.90;99.90
5492;DHT22;2768;53.540;10.224;2023-01-28T14:12:57;5.60;99.90
5492;DHT22;2768;53.540;10.224;2023-01-28T14:18:56;5.20;99.90
5492;DHT22;2768;53.540;10.224;2023-01-28T14:24:51;5.10;99.90
5492;DHT22;2768;53.540;10.224;2023-01-28T14:30:52;4.80;99.90
5492;DHT22;2768;53.540;10.224;2023-01-28T14:36:47;4.60;99.90
5492;DHT22;2768;53.540;10.224;2023-01-28T14:42:43;4.50;99.90
5492;DHT22;2768;53.540;10.224;2023-01-28T14:48:46;4.30;99.90
5492;DHT22;2768;53.540;10.224;2023-01-28T14:54:47;4.30;99.90
5492;DHT22;2768;53.540;10.224;2023-01-28T15:00:52;4.10;99.90
5492;DHT22;2768;53.540;10.224;2023-01-28T15:06:47;4.00;99.90
5492;DHT22;2768;53.540;10.224;2023-01-28T15:12:44;4.00;99.90
5492;DHT22;2768;53.540;10.224;2023-01-28T15:18:42;3.90;99.90
5492;DHT22;2768;53.540;10.224;2023-01-28T15:24:41;3.80;99.90
5492;DHT22;2768;53.540;10.224;2023-01-28T15:30:35;4.00;99.90
5492;DHT22;2768;53.540;10.224;2023-01-28T15:36:29;4.00;99.90
5492;DHT22;2768;53.540;10.224;2023-01-28T15:42:24;3.80;99.90
5492;DHT22;2768;53.540;10.224;2023-01-28T15:48:21;3.90;99.90
5492;DHT22;2768;53.540;10.224;2023-01-28T15:54:15;3.80;99.90
5492;DHT22;2768;53.540;10.224;2023-01-28T16:00:13;3.70;99.90
5492;DHT22;2768;53.540;10.224;2023-01-28T16:06:09;3.70;99.90
5492;DHT22;2768;53.540;10.224;2023-01-28T16:12:05;3.70;99.90
5492;DHT22;2768;53.540;10.224;2023-01-28T16:18:00;3.70;99.90
5492;DHT22;2768;53.540;10.224;2023-01-28T16:23:59;3.80;99.90
5492;DHT22;2768;53.540;10.224;2023-01-28T16:29:52;3.70;99.90
5492;DHT22;2768;53.540;10.224;2023-01-28T16:35:47;3.70;99.90
5492;DHT22;2768;53.540;10.224;2023-01-28T16:41:59;3.80;99.90
5492;DHT22;2768;53.540;10.224;2023-01-28T16:47:53;3.60;99.90
5492;DHT22;2768;53.540;10.224;2023-01-28T16:53:48;3.60;99.90
5492;DHT22;2768;53.540;10.224;2023-01-28T16:59:42;3.50;99.90
5492;DHT22;2768;53.540;10.224;2023-01-28T17:05:35;3.50;99.90
5492;DHT22;2768;53.540;10.224;2023-01-28T17:11:29;3.60;99.90
5492;DHT22;2768;53.540;10.224;2023-01-28T17:17:23;3.60;99.90
5492;DHT22;2768;53.540;10.224;2023-01-28T17:23:16;3.50;99.90
5492;DHT22;2768;53.540;10.224;2023-01-28T17:29:15;3.60;99.90
5492;DHT22;2768;53.540;10.224;2023-01-28T17:35:08;3.70;99.90
5492;DHT22;2768;53.540;10.224;2023-01-28T17:41:05;3.70;99.90
5492;DHT22;2768;53.540;10.224;2023-01-28T17:46:59;3.60;99.90
5492;DHT22;2768;53.540;10.224;2023-01-28T17:52:53;3.50;99.90
5492;DHT22;2768;53.540;10.224;2023-01-28T17:58:48;3.40;99.90
5492;DHT22;2768;53.540;10.224;2023-01-28T18:04:44;3.20;99.90
5492;DHT22;2768;53.540;10.224;2023-01-28T18:10:37;3.10;99.90
5492;DHT22;2768;53.540;10.224;2023-01-28T18:16:35;3.10;99.90
5492;DHT22;2768;53.540;10.224;2023-01-28T18:22:29;3.20;99.90
5492;DHT22;2768;53.540;10.224;2023-01-28T18:28:23;3.20;99.90
5492;DHT22;2768;53.540;10.224;2023-01-28T18:34:17;3.30;99.90
5492;DHT22;2768;53.540;10.224;2023-01-28T18:40:12;3.20;99.90
5492;DHT22;2768;53.540;10.224;2023-01-28T18:46:10;3.20;99.90
5492;DHT22;2768;53.540;10.224;2023-01-28T18:52:04;3.30;99.90
5492;DHT22;2768;53.540;10.224;2023-01-28T18:57:58;3.30;99.90
5492;DHT22;2768;53.540;10.224;2023-01-28T19:03:52;3.30;99.90
5492;DHT22;2768;53.540;10.224;2023-01-28T19:09:46;3.30;99.90
5492;DHT22;2768;53.540;10.224;2023-01-28T19:15:41;3.20;99.90
5492;DHT22;2768;53.540;10.224;2023-01-28T19:21:35;3.30;99.90
5492;DHT22;2768;53.540;10.224;2023-01-28T19:27:29;3.30;99.90
5492;DHT22;2768;53.540;10.224;2023-01-28T19:33:24;3.20;99.90
5492;DHT22;2768;53.540;10.224;2023-01-28T19:39:17;3.20;99.90
5492;DHT22;2768;53.540;10.224;2023-01-28T19:45:12;3.30;99.90
5492;DHT22;2768;53.540;10.224;2023-01-28T19:51:08;3.20;99.90
5492;DHT22;2768;53.540;10.224;2023-01-28T19:57:02;3.30;99.90
5492;DHT22;2768;53.540;10.224;2023-01-28T20:02:55;3.30;99.90
5492;DHT22;2768;53.540;10.224;2023-01-28T20:08:52;3.20;99.90
5492;DHT22;2768;53.540;10.224;2023-01-28T20:14:46;3.10;99.90
5492;DHT22;2768;53.540;10.224;2023-01-28T20:20:39;3.20;99.90
5492;DHT22;2768;53.540;10.224;2023-01-28T20:26:36;3.20;99.90
5492;DHT22;2768;53.540;10.224;2023-01-28T20:32:29;3.20;99.90
5492;DHT22;2768;53.540;10.224;2023-01-28T20:38:23;3.10;1.00
5492;DHT22;2768;53.540;10.224;2023-01-28T20:44:18;3.10;1.00
5492;DHT22;2768;53.540;10.224;2023-01-28T20:50:12;3.00;1.00
5492;DHT22;2768;53.540;10.224;2023-01-28T20:56:06;3.00;1.00
5492;DHT22;2768;53.540;10.224;2023-01-28T21:02:01;3.10;1.00
5492;DHT22;2768;53.540;10.224;2023-01-28T21:07:54;3.10;1.00
5492;DHT22;2768;53.540;10.224;2023-01-28T21:13:48;3.10;1.00
5492;DHT22;2768;53.540;10.224;2023-01-28T21:19:42;3.10;1.00
5492;DHT22;2768;53.540;10.224;2023-01-28T21:25:35;3.00;1.00
5492;DHT22;2768;53.540;10.224;2023-01-28T21:31:29;3.10;1.00
5492;DHT22;2768;53.540;10.224;2023-01-28T21:37:24;3.10;1.00
5492;DHT22;2768;53.540;10.224;2023-01-28T21:43:17;3.10;1.00
5492;DHT22;2768;53.540;10.224;2023-01-28T21:49:10;3.10;1.00
5492;DHT22;2768;53.540;10.224;2023-01-28T21:55:06;3.00;1.00
5492;DHT22;2768;53.540;10.224;2023-01-28T22:01:06;3.00;1.00
5492;DHT22;2768;53.540;10.224;2023-01-28T22:07:01;2.90;1.00
5492;DHT22;2768;53.540;10.224;2023-01-28T22:12:56;3.00;1.00
5492;DHT22;2768;53.540;10.224;2023-01-28T22:18:49;3.00;1.00
5492;DHT22;2768;53.540;10.224;2023-01-28T22:24:43;3.00;1.00
5492;DHT22;2768;53.540;10.224;2023-01-28T22:30:38;3.00;1.00
5492;DHT22;2768;53.540;10.224;2023-01-28T22:36:32;3.10;1.00
5492;DHT22;2768;53.540;10.224;2023-01-28T22:42:26;3.20;1.00
5492;DHT22;2768;53.540;10.224;2023-01-28T22:48:20;3.20;1.00
5492;DHT22;2768;53.540;10.224;2023-01-28T22:54:14;3.20;1.00
5492;DHT22;2768;53.540;10.224;2023-01-28T23:00:10;3.20;1.00
5492;DHT22;2768;53.540;10.224;2023-01-28T23:06:06;3.10;1.00
5492;DHT22;2768;53.540;10.224;2023-01-28T23:12:00;3.10;1.00
5492;DHT22;2768;53.540;10.224;2023-01-28T23:17:53;3.20;1.00
5492;DHT22;2768;53.540;10.224;2023-01-28T23:24:09;3.30;1.00
5492;DHT22;2768;53.540;10.224;2023-01-28T23:30:13;3.50;1.00
5492;DHT22;2768;53.540;10.224;2023-01-28T23:36:07;3.50;1.00
5492;DHT22;2768;53.540;10.224;2023-01-28T23:42:10;3.30;1.00
5492;DHT22;2768;53.540;10.224;2023-01-28T23:48:03;3.40;1.00
5492;DHT22;2768;53.540;10.224;2023-01-28T23:53:57;3.40;1.00
5492;DHT22;2768;53.540;10.224;2023-01-28T23:59:51;3.40;1.00
